createdAt,value
2023-03-17T00:01:54.690Z,65.33
2023-03-17T00:04:25.729Z,65.04
2023-03-17T00:06:53.097Z,65.36
2023-03-17T00:09:21.301Z,65.54
2023-03-17T00:11:49.074Z,65.47
2023-03-17T00:14:16.904Z,65.20
2023-03-17T00:16:49.941Z,64.81
2023-03-17T00:19:27.144Z,65.21
2023-03-17T00:21:54.996Z,65.33
2023-03-17T00:24:21.786Z,65.02
2023-03-17T00:26:48.563Z,64.79
2023-03-17T00:29:16.141Z,64.82
2023-03-17T00:31:45.649Z,64.86
2023-03-17T00:34:17.621Z,64.97
2023-03-17T00:36:47.213Z,64.41
2023-03-17T00:39:17.802Z,64.72
2023-03-17T00:41:44.441Z,64.66
2023-03-17T00:44:11.852Z,65.00
2023-03-17T00:46:41.489Z,65.34
2023-03-17T00:49:25.027Z,64.96
2023-03-17T00:51:52.664Z,64.75
2023-03-17T00:54:20.787Z,64.97
2023-03-17T00:56:49.545Z,64.79
2023-03-17T00:59:26.025Z,65.18
2023-03-17T01:01:53.037Z,65.30
2023-03-17T01:04:19.983Z,65.24
2023-03-17T01:06:48.064Z,65.01
2023-03-17T01:09:16.831Z,64.96
2023-03-17T01:11:44.213Z,65.35
2023-03-17T01:14:13.045Z,65.97
2023-03-17T01:16:40.170Z,66.16
2023-03-17T01:19:07.151Z,65.96
2023-03-17T01:21:33.779Z,66.14
2023-03-17T01:24:00.706Z,65.87
2023-03-17T01:26:27.242Z,66.14
2023-03-17T01:28:53.871Z,65.76
2023-03-17T01:31:20.714Z,65.99
2023-03-17T01:33:47.440Z,65.75
2023-03-17T01:36:14.158Z,65.98
2023-03-17T01:38:40.877Z,65.92
2023-03-17T01:41:07.576Z,65.93
2023-03-17T01:43:35.247Z,65.74
2023-03-17T01:46:34.047Z,64.76
2023-03-17T01:49:16.462Z,64.81
2023-03-17T01:51:51.696Z,65.12
2023-03-17T01:54:26.431Z,65.36
2023-03-17T01:56:57.751Z,65.00
2023-03-17T01:59:28.724Z,65.21
2023-03-17T02:02:01.489Z,65.29
2023-03-17T02:04:28.761Z,65.37
2023-03-17T02:06:58.601Z,65.55
2023-03-17T02:09:27.555Z,65.48
2023-03-17T02:11:55.639Z,65.65
2023-03-17T02:14:22.420Z,65.97
2023-03-17T02:16:49.487Z,65.60
2023-03-17T02:19:17.645Z,65.46
2023-03-17T02:21:47.723Z,65.45
2023-03-17T02:28:15.246Z,64.89
2023-03-17T02:30:43.061Z,64.56
2023-03-17T02:33:10.468Z,64.43
2023-03-17T02:35:36.988Z,64.47
2023-03-17T02:38:03.498Z,64.83
2023-03-17T02:40:30.530Z,65.23
2023-03-17T02:42:57.465Z,65.69
2023-03-17T02:45:24.039Z,65.55
2023-03-17T02:47:51.573Z,65.43
2023-03-17T02:50:23.015Z,65.44
2023-03-17T02:52:50.412Z,64.60
2023-03-17T02:55:17.251Z,64.12
2023-03-17T02:57:43.835Z,64.52
2023-03-17T03:00:11.939Z,64.50
2023-03-17T03:02:39.064Z,64.49
2023-03-17T03:05:08.680Z,64.48
2023-03-17T03:07:35.569Z,63.52
2023-03-17T03:10:02.838Z,62.80
2023-03-17T03:12:29.319Z,63.12
2023-03-17T03:14:55.811Z,63.35
2023-03-17T03:17:22.302Z,63.26
2023-03-17T03:19:49.667Z,63.05
2023-03-17T03:22:16.298Z,62.86
2023-03-17T03:24:42.837Z,61.79
2023-03-17T03:27:09.369Z,61.71
2023-03-17T03:29:36.285Z,60.54
2023-03-17T03:32:03.037Z,60.60
2023-03-17T03:34:29.668Z,61.18
2023-03-17T03:36:56.208Z,60.97
2023-03-17T03:39:22.728Z,60.98
2023-03-17T03:41:49.238Z,61.13
2023-03-17T03:44:17.161Z,61.51
2023-03-17T03:46:43.852Z,62.22
2023-03-17T03:49:10.713Z,61.99
2023-03-17T03:51:37.445Z,62.02
2023-03-17T03:54:03.966Z,61.69
2023-03-17T03:56:30.571Z,62.12
2023-03-17T03:58:57.207Z,61.94
2023-03-17T04:01:24.645Z,61.83
2023-03-17T04:03:51.404Z,62.03
2023-03-17T04:06:17.882Z,62.32
2023-03-17T04:08:44.788Z,61.70
2023-03-17T04:11:11.971Z,61.76
2023-03-17T04:13:40.244Z,61.68
2023-03-17T04:16:08.182Z,62.05
2023-03-17T04:18:36.049Z,62.27
2023-03-17T04:21:03.690Z,62.47
2023-03-17T04:23:31.605Z,63.14
2023-03-17T04:25:58.456Z,63.87
2023-03-17T04:28:24.978Z,63.77
2023-03-17T04:30:53.240Z,63.27
2023-03-17T04:33:20.380Z,63.17
2023-03-17T04:35:47.211Z,62.76
2023-03-17T04:38:13.772Z,62.96
2023-03-17T04:40:40.985Z,62.99
2023-03-17T04:43:07.519Z,63.20
2023-03-17T04:45:34.395Z,63.48
2023-03-17T04:48:00.926Z,63.46
2023-03-17T04:50:27.718Z,63.18
2023-03-17T04:52:54.351Z,63.03
2023-03-17T04:55:21.428Z,62.88
2023-03-17T04:57:48.491Z,62.82
2023-03-17T05:00:15.588Z,62.17
2023-03-17T05:02:42.321Z,62.27
2023-03-17T05:05:09.830Z,61.62
2023-03-17T05:07:36.466Z,61.59
2023-03-17T05:10:03.195Z,61.65
2023-03-17T05:12:29.804Z,61.40
2023-03-17T05:14:56.291Z,61.45
2023-03-17T05:17:22.765Z,60.72
2023-03-17T05:19:49.307Z,61.14
2023-03-17T05:22:16.220Z,61.48
2023-03-17T05:24:48.559Z,61.53
2023-03-17T05:27:15.737Z,62.05
2023-03-17T05:29:42.436Z,61.97
2023-03-17T05:32:09.370Z,61.86
2023-03-17T05:34:35.877Z,61.97
2023-03-17T05:37:03.384Z,61.70
2023-03-17T05:39:29.936Z,62.00
2023-03-17T05:41:57.156Z,62.70
2023-03-17T05:44:23.924Z,63.11
2023-03-17T05:46:51.172Z,62.53
2023-03-17T05:49:18.745Z,62.41
2023-03-17T05:51:45.225Z,61.86
2023-03-17T05:54:12.184Z,61.59
2023-03-17T05:56:39.107Z,61.25
2023-03-17T05:59:05.689Z,61.01
2023-03-17T06:01:32.442Z,61.14
2023-03-17T06:04:00.977Z,61.42
2023-03-17T06:06:28.775Z,61.45
2023-03-17T06:08:55.307Z,61.31
2023-03-17T06:11:21.838Z,61.36
2023-03-17T06:13:48.815Z,60.98
2023-03-17T06:16:15.598Z,61.13
2023-03-17T06:18:42.394Z,61.09
2023-03-17T06:21:09.161Z,60.79
2023-03-17T06:23:36.890Z,60.59
2023-03-17T06:26:03.528Z,60.75
2023-03-17T06:28:30.862Z,60.57
2023-03-17T06:30:58.334Z,60.30
2023-03-17T06:33:25.409Z,60.22
2023-03-17T06:35:52.262Z,59.33
2023-03-17T06:38:18.894Z,59.40
2023-03-17T06:40:45.671Z,59.40
2023-03-17T06:43:12.263Z,58.51
2023-03-17T06:45:38.890Z,59.13
2023-03-17T06:48:07.026Z,58.68
2023-03-17T06:50:33.886Z,58.92
2023-03-17T06:53:00.361Z,58.12
2023-03-17T06:55:27.519Z,57.69
2023-03-17T06:57:54.308Z,58.01
2023-03-17T07:00:21.286Z,57.35
2023-03-17T07:02:49.840Z,56.82
2023-03-17T07:05:16.903Z,57.24
2023-03-17T07:07:43.608Z,57.29
2023-03-17T07:10:12.418Z,57.35
2023-03-17T07:12:39.244Z,56.71
2023-03-17T07:15:06.618Z,56.17
2023-03-17T07:17:33.622Z,54.95
2023-03-17T07:20:00.245Z,54.09
2023-03-17T07:22:27.305Z,54.47
2023-03-17T07:24:54.059Z,53.39
2023-03-17T07:27:22.995Z,52.89
2023-03-17T07:29:49.760Z,52.30
2023-03-17T07:32:16.285Z,52.45
2023-03-17T07:37:24.905Z,51.67
2023-03-17T07:39:51.919Z,51.17
2023-03-17T07:42:18.493Z,49.17
2023-03-17T07:44:45.058Z,46.63
2023-03-17T07:47:12.408Z,47.31
2023-03-17T07:49:42.079Z,48.00
2023-03-17T07:52:10.397Z,46.27
2023-03-17T07:54:37.574Z,46.65
2023-03-17T07:57:05.449Z,46.74
2023-03-17T07:59:32.708Z,45.84
2023-03-17T08:02:01.737Z,45.20
2023-03-17T08:04:28.736Z,44.64
2023-03-17T08:06:55.681Z,44.61
2023-03-17T08:09:22.315Z,43.80
2023-03-17T08:11:49.263Z,44.16
2023-03-17T08:14:15.862Z,43.56
2023-03-17T08:16:42.911Z,42.91
2023-03-17T08:19:10.773Z,43.26
2023-03-17T08:21:37.293Z,42.37
2023-03-17T08:24:05.228Z,40.39
2023-03-17T08:26:32.255Z,39.80
2023-03-17T08:28:58.872Z,41.13
2023-03-17T08:31:25.495Z,40.74
2023-03-17T08:33:54.064Z,39.60
2023-03-17T08:36:21.587Z,39.88
2023-03-17T08:38:48.968Z,39.62
2023-03-17T08:41:18.821Z,38.85
2023-03-17T08:43:46.528Z,39.43
2023-03-17T08:46:22.936Z,37.27
2023-03-17T08:48:51.713Z,37.18
2023-03-17T08:51:22.126Z,35.42
2023-03-17T08:53:51.222Z,37.03
2023-03-17T08:56:18.052Z,36.26
2023-03-17T08:58:45.034Z,37.54
2023-03-17T09:01:12.529Z,34.57
2023-03-17T09:03:41.082Z,34.85
2023-03-17T09:06:11.320Z,35.49
2023-03-17T09:08:39.909Z,32.26
2023-03-17T09:11:07.674Z,33.61
2023-03-17T09:13:36.918Z,35.23
2023-03-17T09:16:04.267Z,34.43
2023-03-17T09:18:33.003Z,34.11
2023-03-17T09:20:59.614Z,33.71
2023-03-17T09:23:26.269Z,32.09
2023-03-17T09:25:52.751Z,34.94
2023-03-17T09:28:19.283Z,33.76
2023-03-17T09:30:46.188Z,30.11
2023-03-17T09:33:14.381Z,29.93
2023-03-17T09:35:45.278Z,30.17
2023-03-17T09:38:12.879Z,32.46
2023-03-17T09:40:49.861Z,33.75
2023-03-17T09:43:41.548Z,32.66
2023-03-17T09:46:37.652Z,34.40
2023-03-17T09:49:25.202Z,31.65
2023-03-17T09:51:52.736Z,29.21
2023-03-17T09:54:35.980Z,29.72
2023-03-17T09:57:26.401Z,29.29
2023-03-17T10:00:01.670Z,30.99
2023-03-17T10:02:32.268Z,29.55
2023-03-17T10:05:07.481Z,30.55
2023-03-17T10:08:02.909Z,29.43
2023-03-17T10:10:37.600Z,28.92
2023-03-17T10:13:07.256Z,28.62
2023-03-17T10:15:58.346Z,30.24
2023-03-17T10:18:30.603Z,27.75
2023-03-17T10:21:04.927Z,27.68
2023-03-17T10:23:37.682Z,26.28
2023-03-17T10:26:17.651Z,29.64
2023-03-17T10:28:44.425Z,30.14
2023-03-17T10:31:14.265Z,31.62
2023-03-17T10:33:43.508Z,30.08
2023-03-17T10:36:11.270Z,30.92
2023-03-17T10:38:37.813Z,29.19
2023-03-17T10:41:13.984Z,28.61
2023-03-17T10:43:47.090Z,28.17
2023-03-17T10:46:23.296Z,29.71
2023-03-17T10:48:53.822Z,28.12
2023-03-17T10:51:27.257Z,28.19
2023-03-17T10:53:53.846Z,29.72
2023-03-17T10:56:26.607Z,29.68
2023-03-17T10:58:56.930Z,30.04
2023-03-17T11:01:38.286Z,31.23
2023-03-17T11:04:30.182Z,31.09
2023-03-17T11:06:59.078Z,31.72
2023-03-17T11:09:28.351Z,33.46
2023-03-17T11:12:07.499Z,31.29
2023-03-17T11:14:35.395Z,31.81
2023-03-17T11:17:13.026Z,35.02
2023-03-17T11:20:07.116Z,31.11
2023-03-17T11:22:41.715Z,32.46
2023-03-17T11:25:16.266Z,34.16
2023-03-17T11:27:53.158Z,33.76
2023-03-17T11:30:32.796Z,33.71
2023-03-17T11:33:13.119Z,35.88
2023-03-17T11:35:46.597Z,34.55
2023-03-17T11:38:20.581Z,35.25
2023-03-17T11:41:35.729Z,36.28
2023-03-17T11:44:08.139Z,34.03
2023-03-17T11:46:43.374Z,34.57
2023-03-17T11:49:28.583Z,33.32
2023-03-17T11:52:17.525Z,32.84
2023-03-17T11:54:58.997Z,35.69
2023-03-17T11:57:33.788Z,34.51
2023-03-17T12:00:07.849Z,35.99
2023-03-17T12:03:07.123Z,35.19
2023-03-17T12:05:35.519Z,33.30
2023-03-17T12:08:06.155Z,35.72
2023-03-17T12:10:50.606Z,35.19
2023-03-17T12:13:35.602Z,37.06
2023-03-17T12:16:11.754Z,35.74
2023-03-17T12:18:54.661Z,36.18
2023-03-17T12:21:39.016Z,35.55
2023-03-17T12:24:20.109Z,35.75
2023-03-17T12:26:49.608Z,36.21
2023-03-17T12:29:39.897Z,35.04
2023-03-17T12:32:33.760Z,35.09
2023-03-17T12:35:22.652Z,34.34
2023-03-17T12:37:49.724Z,34.84
2023-03-17T12:40:26.283Z,33.48
2023-03-17T12:43:18.211Z,34.17
2023-03-17T12:46:22.465Z,34.45
2023-03-17T12:48:59.228Z,34.20
2023-03-17T12:51:48.588Z,34.76
2023-03-17T12:54:44.979Z,35.23
2023-03-17T12:57:19.155Z,34.91
2023-03-17T12:59:49.081Z,34.97
2023-03-17T13:02:38.863Z,34.80
2023-03-17T13:05:13.486Z,36.45
2023-03-17T13:07:54.360Z,35.25
2023-03-17T13:10:42.263Z,34.72
2023-03-17T13:13:28.134Z,35.54
2023-03-17T13:15:58.264Z,34.98
2023-03-17T13:18:47.292Z,37.29
2023-03-17T13:21:16.837Z,37.46
2023-03-17T13:23:54.961Z,35.18
2023-03-17T13:26:42.742Z,37.78
2023-03-17T13:29:37.330Z,38.84
2023-03-17T13:32:16.911Z,38.19
2023-03-17T13:34:52.841Z,36.93
2023-03-17T13:37:31.268Z,36.31
2023-03-17T13:40:25.348Z,37.34
2023-03-17T13:43:19.435Z,37.40
2023-03-17T13:45:48.933Z,36.22
2023-03-17T13:48:18.945Z,37.39
2023-03-17T13:50:46.935Z,35.31
2023-03-17T13:53:15.086Z,36.97
2023-03-17T13:55:43.548Z,36.72
2023-03-17T13:58:11.878Z,36.29
2023-03-17T14:00:42.697Z,37.13
2023-03-17T14:03:29.230Z,37.36
2023-03-17T14:05:56.911Z,38.15
2023-03-17T14:08:37.951Z,39.82
2023-03-17T14:11:09.198Z,40.34
2023-03-17T14:14:08.001Z,40.02
2023-03-17T14:16:47.873Z,40.75
2023-03-17T14:19:21.932Z,41.51
2023-03-17T14:21:48.958Z,39.19
2023-03-17T14:24:30.899Z,39.17
2023-03-17T14:26:57.674Z,40.35
2023-03-17T14:29:32.256Z,38.60
2023-03-17T14:32:25.454Z,38.26
2023-03-17T14:34:58.282Z,37.63
2023-03-17T14:37:28.446Z,37.96
2023-03-17T14:39:57.565Z,37.26
2023-03-17T14:42:30.078Z,40.38
2023-03-17T14:45:31.492Z,39.40
2023-03-17T14:47:58.275Z,41.24
2023-03-17T14:50:31.152Z,41.50
2023-03-17T14:53:01.704Z,41.96
2023-03-17T14:55:48.872Z,42.93
2023-03-17T14:58:24.605Z,43.42
2023-03-17T15:01:07.988Z,43.68
2023-03-17T15:03:39.956Z,44.05
2023-03-17T15:06:29.613Z,43.66
2023-03-17T15:09:04.575Z,44.53
2023-03-17T15:11:41.726Z,44.86
2023-03-17T15:14:23.114Z,45.21
2023-03-17T15:16:53.328Z,45.61
2023-03-17T15:19:26.369Z,44.96
2023-03-17T15:22:00.008Z,43.98
2023-03-17T15:24:34.207Z,43.64
2023-03-17T15:27:04.275Z,42.96
2023-03-17T15:29:31.068Z,44.73
2023-03-17T15:32:10.081Z,44.93
2023-03-17T15:34:38.016Z,44.41
2023-03-17T15:37:13.446Z,45.11
2023-03-17T15:39:39.966Z,44.22
2023-03-17T15:42:06.665Z,44.28
2023-03-17T15:44:33.199Z,44.32
2023-03-17T15:47:00.157Z,45.10
2023-03-17T15:49:27.120Z,45.10
2023-03-17T15:51:54.184Z,45.46
2023-03-17T15:54:20.686Z,44.69
2023-03-17T15:56:47.262Z,44.98
2023-03-17T15:59:13.859Z,44.86
2023-03-17T16:01:40.976Z,45.17
2023-03-17T16:04:09.326Z,45.40
2023-03-17T16:06:36.138Z,45.85
2023-03-17T16:09:03.339Z,46.65
2023-03-17T16:11:31.418Z,46.54
2023-03-17T16:13:59.629Z,46.83
2023-03-17T16:16:31.765Z,47.11
2023-03-17T16:18:58.871Z,46.74
2023-03-17T16:21:25.632Z,47.20
2023-03-17T16:23:52.424Z,47.87
2023-03-17T16:26:18.947Z,48.34
2023-03-17T16:28:47.470Z,48.08
2023-03-17T16:31:31.760Z,46.52
2023-03-17T16:33:58.388Z,46.88
2023-03-17T16:36:25.885Z,47.39
2023-03-17T16:38:52.788Z,47.62
2023-03-17T16:41:27.361Z,47.43
2023-03-17T16:44:00.993Z,47.52
2023-03-17T16:46:34.594Z,48.37
2023-03-17T16:49:01.979Z,49.33
2023-03-17T16:51:28.621Z,48.96
2023-03-17T16:53:56.951Z,48.85
2023-03-17T16:56:25.267Z,48.21
2023-03-17T16:58:52.078Z,48.26
2023-03-17T17:01:25.284Z,47.71
2023-03-17T17:03:51.802Z,47.08
2023-03-17T17:06:19.943Z,47.39
2023-03-17T17:08:47.930Z,47.48
2023-03-17T17:11:16.256Z,46.66
2023-03-17T17:13:44.831Z,46.45
2023-03-17T17:16:43.967Z,46.37
2023-03-17T17:19:17.008Z,46.91
2023-03-17T17:21:44.817Z,46.79
2023-03-17T17:24:12.961Z,46.24
2023-03-17T17:26:40.317Z,46.63
2023-03-17T17:29:07.787Z,46.54
2023-03-17T17:31:34.591Z,46.16
2023-03-17T17:34:01.282Z,46.33
2023-03-17T17:36:29.287Z,47.16
2023-03-17T17:38:55.923Z,46.72
2023-03-17T17:41:22.804Z,47.05
2023-03-17T17:43:50.230Z,47.12
2023-03-17T17:46:19.517Z,47.88
2023-03-17T17:48:47.052Z,47.64
2023-03-17T17:51:13.907Z,47.58
2023-03-17T17:53:40.579Z,47.35
2023-03-17T17:56:07.644Z,47.09
2023-03-17T17:58:34.187Z,47.14
2023-03-17T18:01:01.017Z,47.36
2023-03-17T18:03:27.687Z,47.43
2023-03-17T18:05:57.486Z,46.22
2023-03-17T18:08:25.112Z,45.53
2023-03-17T18:10:52.459Z,45.26
2023-03-17T18:13:19.197Z,45.77
2023-03-17T18:15:47.053Z,45.54
2023-03-17T18:18:14.017Z,46.43
2023-03-17T18:20:40.975Z,47.18
2023-03-17T18:23:07.900Z,48.60
2023-03-17T18:25:34.627Z,48.60
2023-03-17T18:28:01.497Z,47.82
2023-03-17T18:30:30.924Z,48.15
2023-03-17T18:33:07.437Z,47.30
2023-03-17T18:35:34.472Z,47.89
2023-03-17T18:38:01.463Z,47.75
2023-03-17T18:40:28.337Z,47.49
2023-03-17T18:42:55.534Z,46.72
2023-03-17T18:45:22.409Z,46.72
2023-03-17T18:47:48.854Z,46.85
2023-03-17T18:50:16.521Z,46.88
2023-03-17T18:52:43.973Z,47.00
2023-03-17T18:55:12.161Z,47.13
2023-03-17T18:57:38.817Z,47.31
2023-03-17T19:00:08.569Z,46.58
2023-03-17T19:02:37.324Z,47.22
2023-03-17T19:05:04.825Z,46.93
2023-03-17T19:07:31.334Z,48.32
2023-03-17T19:09:57.971Z,48.47
2023-03-17T19:12:24.730Z,48.41
2023-03-17T19:14:52.248Z,48.58
2023-03-17T19:17:18.742Z,48.54
2023-03-17T19:19:45.545Z,48.43
2023-03-17T19:22:12.560Z,48.78
2023-03-17T19:24:39.089Z,48.63
2023-03-17T19:27:05.615Z,49.78
2023-03-17T19:29:33.409Z,50.43
2023-03-17T19:32:00.714Z,50.56
2023-03-17T19:34:27.465Z,50.64
2023-03-17T19:36:54.347Z,50.62
2023-03-17T19:39:21.917Z,50.67
2023-03-17T19:41:50.367Z,51.02
2023-03-17T19:44:17.181Z,50.88
2023-03-17T19:46:44.229Z,50.96
2023-03-17T19:49:11.555Z,51.66
2023-03-17T19:51:38.330Z,52.05
2023-03-17T19:54:05.385Z,52.27
2023-03-17T19:56:32.059Z,52.07
2023-03-17T19:58:58.580Z,52.46
2023-03-17T20:01:25.409Z,53.46
2023-03-17T20:03:52.021Z,53.80
2023-03-17T20:06:18.657Z,54.00
2023-03-17T20:08:45.408Z,53.63
2023-03-17T20:11:13.424Z,54.53
2023-03-17T20:13:40.918Z,54.22
2023-03-17T20:16:08.916Z,53.91
2023-03-17T20:18:36.395Z,53.84
2023-03-17T20:21:06.017Z,54.24
2023-03-17T20:23:33.244Z,54.62
2023-03-17T20:26:02.662Z,55.00
2023-03-17T20:28:30.135Z,54.66
2023-03-17T20:31:02.697Z,55.30
2023-03-17T20:33:29.261Z,54.85
2023-03-17T20:35:55.875Z,54.91
2023-03-17T20:38:22.764Z,54.55
2023-03-17T20:40:49.651Z,53.88
2023-03-17T20:43:16.985Z,53.68
2023-03-17T20:45:43.778Z,53.92
2023-03-17T20:48:11.194Z,54.03
2023-03-17T20:50:38.966Z,53.95
2023-03-17T20:53:05.681Z,54.30
2023-03-17T20:55:32.167Z,54.54
2023-03-17T20:57:59.786Z,55.10
2023-03-17T21:00:26.825Z,54.61
2023-03-17T21:02:53.602Z,54.91
2023-03-17T21:05:23.997Z,54.15
2023-03-17T21:07:51.755Z,54.67
2023-03-17T21:10:19.114Z,53.98
2023-03-17T21:12:46.498Z,54.49
2023-03-17T21:15:14.040Z,55.09
2023-03-17T21:17:44.404Z,55.36
2023-03-17T21:20:12.696Z,55.28
2023-03-17T21:22:40.398Z,55.87
2023-03-17T21:25:08.890Z,56.53
2023-03-17T21:27:39.905Z,55.71
2023-03-17T21:30:14.751Z,56.32
2023-03-17T21:32:42.359Z,55.64
2023-03-17T21:35:09.477Z,56.04
2023-03-17T21:37:36.119Z,56.06
2023-03-17T21:40:06.883Z,55.90
2023-03-17T21:42:34.335Z,56.34
2023-03-17T21:45:01.055Z,56.71
2023-03-17T21:47:30.233Z,56.25
2023-03-17T21:49:58.255Z,56.00
2023-03-17T21:52:25.469Z,56.75
2023-03-17T21:54:52.154Z,56.27
2023-03-17T21:57:19.071Z,56.40
2023-03-17T21:59:46.759Z,56.34
2023-03-17T22:02:13.911Z,56.44
2023-03-17T22:04:41.671Z,56.38
2023-03-17T22:07:08.758Z,56.26
2023-03-17T22:09:36.107Z,56.58
2023-03-17T22:12:03.859Z,56.95
2023-03-17T22:14:31.418Z,57.00
2023-03-17T22:16:58.209Z,57.06
2023-03-17T22:19:25.022Z,57.20
2023-03-17T22:21:51.793Z,57.11
2023-03-17T22:24:18.715Z,57.55
2023-03-17T22:26:47.889Z,57.48
2023-03-17T22:29:14.903Z,57.64
2023-03-17T22:31:41.993Z,57.41
2023-03-17T22:34:10.066Z,57.75
2023-03-17T22:36:37.358Z,58.43
2023-03-17T22:39:06.975Z,58.07
2023-03-17T22:41:33.862Z,57.82
2023-03-17T22:44:00.457Z,58.42
2023-03-17T22:46:27.349Z,58.58
2023-03-17T22:48:54.074Z,57.86
2023-03-17T22:51:23.352Z,58.53
2023-03-17T22:53:51.319Z,59.15
2023-03-17T22:56:19.415Z,58.54
2023-03-17T22:58:46.965Z,58.62
2023-03-17T23:01:16.591Z,59.47
2023-03-17T23:03:43.959Z,59.15
2023-03-17T23:06:11.595Z,59.22
2023-03-17T23:08:39.936Z,59.65
2023-03-17T23:11:13.913Z,59.43
2023-03-17T23:13:41.547Z,59.20
2023-03-17T23:16:09.214Z,59.13
2023-03-17T23:18:36.229Z,60.45
2023-03-17T23:21:04.590Z,60.91
2023-03-17T23:23:31.758Z,61.06
2023-03-17T23:26:00.613Z,60.67
2023-03-17T23:28:27.525Z,61.18
2023-03-17T23:30:55.196Z,60.28
2023-03-17T23:33:24.240Z,60.50
2023-03-17T23:35:51.582Z,60.28
2023-03-17T23:38:22.165Z,60.90
2023-03-17T23:40:50.265Z,61.11
2023-03-17T23:43:16.779Z,61.02
2023-03-17T23:45:43.448Z,60.59
2023-03-17T23:48:11.073Z,61.43
2023-03-17T23:50:39.884Z,61.00
2023-03-17T23:53:06.828Z,62.31
2023-03-17T23:55:33.570Z,61.98
2023-03-17T23:58:01.374Z,62.22
